createdAt,value
2017-09-22T00:00:33.493Z,7.80
2017-09-22T00:03:01.385Z,8.00
2017-09-22T00:05:38.669Z,8.00
2017-09-22T00:08:06.578Z,8.00
2017-09-22T00:10:34.534Z,7.90
2017-09-22T00:13:02.481Z,7.80
2017-09-22T00:15:30.419Z,7.80
2017-09-22T00:17:58.356Z,7.80
2017-09-22T00:20:26.291Z,7.80
2017-09-22T00:22:54.185Z,7.70
2017-09-22T00:25:22.145Z,7.80
2017-09-22T00:27:50.037Z,7.80
2017-09-22T00:30:17.939Z,7.80
2017-09-22T00:32:45.898Z,7.80
2017-09-22T00:35:14.075Z,7.80
2017-09-22T00:37:42.030Z,7.80
2017-09-22T00:40:09.978Z,7.90
2017-09-22T00:42:37.922Z,7.90
2017-09-22T00:45:06.584Z,7.90
2017-09-22T00:47:34.536Z,7.90
2017-09-22T00:50:02.437Z,7.90
2017-09-22T00:52:31.161Z,8.10
2017-09-22T00:54:59.065Z,8.00
2017-09-22T00:57:27.029Z,8.10
2017-09-22T00:59:54.920Z,8.10
2017-09-22T01:02:22.924Z,8.20
2017-09-22T01:04:50.856Z,8.20
2017-09-22T01:07:18.804Z,8.30
2017-09-22T01:09:46.706Z,8.40
2017-09-22T01:12:14.637Z,8.40
2017-09-22T01:14:42.514Z,8.40
2017-09-22T01:17:10.449Z,8.40
2017-09-22T01:19:38.362Z,8.40
2017-09-22T01:22:06.301Z,8.30
2017-09-22T01:24:34.186Z,8.30
2017-09-22T01:27:02.145Z,8.30
2017-09-22T01:29:30.272Z,8.30
2017-09-22T01:31:58.212Z,8.40
2017-09-22T01:34:34.119Z,8.40
2017-09-22T01:37:02.066Z,8.40
2017-09-22T01:39:29.967Z,8.30
2017-09-22T01:41:57.870Z,8.30
2017-09-22T01:44:25.925Z,8.20
2017-09-22T01:46:53.815Z,8.10
2017-09-22T01:49:21.752Z,8.00
2017-09-22T01:51:50.055Z,7.90
2017-09-22T01:54:18.019Z,7.90
2017-09-22T01:56:45.909Z,7.90
2017-09-22T01:59:13.849Z,7.90
2017-09-22T02:01:41.737Z,7.90
2017-09-22T02:04:11.725Z,7.70
2017-09-22T02:06:39.647Z,7.60
2017-09-22T02:09:07.605Z,7.60
2017-09-22T02:11:35.497Z,7.50
2017-09-22T02:14:03.457Z,7.50
2017-09-22T02:16:31.352Z,7.50
2017-09-22T02:18:59.284Z,7.50
2017-09-22T02:21:27.193Z,7.40
2017-09-22T02:23:55.139Z,7.30
2017-09-22T02:26:23.025Z,7.30
2017-09-22T02:28:51.001Z,7.30
2017-09-22T02:31:18.890Z,7.30
2017-09-22T02:33:47.063Z,7.30
2017-09-22T02:36:14.958Z,7.20
2017-09-22T02:38:42.902Z,7.10
2017-09-22T02:41:10.802Z,7.20
2017-09-22T02:43:38.749Z,7.00
2017-09-22T02:46:06.644Z,7.00
2017-09-22T02:48:34.562Z,7.00
2017-09-22T02:51:02.504Z,6.90
2017-09-22T02:53:30.408Z,6.90
2017-09-22T02:55:58.354Z,6.90
2017-09-22T02:58:26.244Z,6.90
2017-09-22T03:00:54.246Z,6.90
2017-09-22T03:03:23.293Z,6.90
2017-09-22T03:05:52.019Z,6.60
2017-09-22T03:08:19.924Z,6.60
2017-09-22T03:10:47.869Z,6.60
2017-09-22T03:13:15.754Z,6.60
2017-09-22T03:15:43.692Z,6.60
2017-09-22T03:18:11.593Z,6.50
2017-09-22T03:20:39.556Z,6.50
2017-09-22T03:23:07.453Z,6.50
2017-09-22T03:25:35.409Z,6.60
2017-09-22T03:28:03.287Z,6.60
2017-09-22T03:30:31.239Z,6.60
2017-09-22T03:32:59.134Z,6.60
2017-09-22T03:35:27.081Z,6.60
2017-09-22T03:37:55.014Z,6.60
2017-09-22T03:40:22.960Z,6.50
2017-09-22T03:42:50.876Z,6.40
2017-09-22T03:45:18.843Z,6.20
2017-09-22T03:47:46.754Z,6.20
2017-09-22T03:50:15.392Z,6.30
2017-09-22T03:52:43.335Z,6.30
2017-09-22T03:55:17.639Z,6.30
2017-09-22T03:57:45.571Z,6.20
2017-09-22T04:00:13.460Z,6.20
2017-09-22T04:02:41.394Z,6.30
2017-09-22T04:05:09.287Z,6.20
2017-09-22T04:07:37.224Z,6.10
2017-09-22T04:10:05.169Z,6.10
2017-09-22T04:12:33.113Z,6.00
2017-09-22T04:15:01.019Z,6.00
2017-09-22T04:17:28.969Z,5.90
2017-09-22T04:19:56.878Z,6.00
2017-09-22T04:22:24.823Z,6.00
2017-09-22T04:24:53.972Z,6.00
2017-09-22T04:27:21.981Z,6.00
2017-09-22T04:29:49.961Z,6.00
2017-09-22T04:32:17.909Z,6.00
2017-09-22T04:34:45.809Z,6.00
2017-09-22T04:37:13.749Z,5.80
2017-09-22T04:39:41.660Z,5.90
2017-09-22T04:42:09.609Z,5.90
2017-09-22T04:44:37.500Z,5.80
2017-09-22T04:47:05.457Z,5.80
2017-09-22T04:49:33.350Z,5.80
2017-09-22T04:52:01.297Z,5.90
2017-09-22T04:54:29.322Z,6.00
2017-09-22T04:56:58.041Z,6.00
2017-09-22T04:59:25.945Z,6.00
2017-09-22T05:01:53.871Z,6.10
2017-09-22T05:04:21.901Z,6.00
2017-09-22T05:06:49.845Z,5.90
2017-09-22T05:09:17.786Z,5.90
2017-09-22T05:11:45.683Z,5.80
2017-09-22T05:14:13.642Z,5.70
2017-09-22T05:16:41.546Z,5.80
2017-09-22T05:19:09.515Z,5.80
2017-09-22T05:21:37.409Z,5.90
2017-09-22T05:24:09.306Z,5.90
2017-09-22T05:26:37.216Z,5.80
2017-09-22T05:29:05.164Z,5.70
2017-09-22T05:31:33.071Z,5.80
2017-09-22T05:34:01.035Z,5.80
2017-09-22T05:36:28.928Z,5.90
2017-09-22T05:38:57.026Z,6.00
2017-09-22T05:41:24.977Z,6.10
2017-09-22T05:43:52.950Z,6.10
2017-09-22T05:46:20.873Z,6.10
2017-09-22T05:48:48.968Z,6.10
2017-09-22T05:51:20.219Z,6.20
2017-09-22T05:53:49.005Z,6.30
2017-09-22T05:56:16.902Z,6.30
2017-09-22T05:58:44.836Z,6.40
2017-09-22T06:01:12.723Z,6.60
2017-09-22T06:03:40.661Z,6.70
2017-09-22T06:06:08.563Z,6.70
2017-09-22T06:08:36.453Z,7.00
2017-09-22T06:11:04.384Z,7.20
2017-09-22T06:13:35.597Z,7.40
2017-09-22T06:16:03.524Z,7.60
2017-09-22T06:18:31.401Z,7.60
2017-09-22T06:21:00.117Z,7.80
2017-09-22T06:23:28.002Z,7.80
2017-09-22T06:25:55.936Z,8.20
2017-09-22T06:28:23.815Z,8.50
2017-09-22T06:30:51.754Z,8.80
2017-09-22T06:33:19.647Z,8.90
2017-09-22T06:35:47.584Z,9.10
2017-09-22T06:38:15.494Z,9.20
2017-09-22T06:40:43.430Z,9.60
2017-09-22T06:43:11.313Z,9.90
2017-09-22T06:45:39.252Z,10.10
2017-09-22T06:48:07.162Z,10.30
2017-09-22T06:50:35.135Z,10.20
2017-09-22T06:53:03.053Z,10.10
2017-09-22T06:55:31.000Z,10.20
2017-09-22T06:57:58.918Z,10.40
2017-09-22T07:00:26.871Z,10.50
2017-09-22T07:02:54.764Z,10.50
2017-09-22T07:05:22.783Z,10.70
2017-09-22T07:07:50.705Z,11.00
2017-09-22T07:10:18.661Z,11.40
2017-09-22T07:12:46.612Z,11.30
2017-09-22T07:15:15.288Z,12.30
2017-09-22T07:17:43.254Z,12.20
2017-09-22T07:20:11.208Z,13.10
2017-09-22T07:22:39.175Z,13.70
2017-09-22T07:25:07.066Z,14.20
2017-09-22T07:27:35.028Z,14.70
2017-09-22T07:30:02.979Z,15.70
2017-09-22T07:32:30.980Z,16.70
2017-09-22T07:34:59.864Z,17.00
2017-09-22T07:37:27.855Z,17.80
2017-09-22T07:39:55.753Z,18.30
2017-09-22T07:42:23.713Z,19.00
2017-09-22T07:44:51.641Z,20.10
2017-09-22T07:47:21.733Z,20.40
2017-09-22T07:49:52.447Z,21.30
2017-09-22T07:52:20.452Z,22.10
2017-09-22T07:54:48.451Z,22.50
2017-09-22T07:57:16.452Z,22.70
2017-09-22T07:59:44.382Z,22.20
2017-09-22T08:02:12.406Z,22.20
2017-09-22T08:04:40.465Z,21.40
2017-09-22T08:07:08.406Z,21.30
2017-09-22T08:09:36.306Z,21.00
2017-09-22T08:12:04.308Z,21.00
2017-09-22T08:14:32.221Z,21.00
2017-09-22T08:17:00.185Z,21.80
2017-09-22T08:19:28.860Z,21.20
2017-09-22T08:21:57.101Z,21.10
2017-09-22T08:24:25.097Z,22.80
2017-09-22T08:26:53.051Z,24.20
2017-09-22T08:29:21.038Z,24.50
2017-09-22T08:31:49.022Z,24.50
2017-09-22T08:34:17.081Z,25.00
2017-09-22T08:36:45.076Z,24.50
2017-09-22T08:39:13.087Z,24.30
2017-09-22T08:41:41.019Z,24.50
2017-09-22T08:44:09.023Z,24.40
2017-09-22T08:46:36.962Z,24.10
2017-09-22T08:49:05.005Z,24.70
2017-09-22T08:51:33.847Z,26.00
2017-09-22T08:54:02.005Z,25.90
2017-09-22T08:56:29.964Z,26.40
2017-09-22T08:58:58.660Z,26.70
2017-09-22T09:01:27.037Z,26.90
2017-09-22T09:03:55.262Z,26.70
2017-09-22T09:06:31.506Z,26.20
2017-09-22T09:08:59.657Z,25.70
2017-09-22T09:11:27.651Z,24.50
2017-09-22T09:13:55.716Z,23.80
2017-09-22T09:16:24.792Z,23.90
2017-09-22T09:18:52.863Z,23.80
2017-09-22T09:21:20.888Z,23.60
2017-09-22T09:23:49.334Z,23.90
2017-09-22T09:26:17.747Z,23.70
2017-09-22T09:28:45.933Z,23.80
2017-09-22T09:31:13.983Z,23.90
2017-09-22T09:33:41.974Z,23.90
2017-09-22T09:36:10.064Z,23.80
2017-09-22T09:38:38.080Z,24.20
2017-09-22T09:41:06.180Z,24.30
2017-09-22T09:43:34.194Z,24.20
2017-09-22T09:46:02.291Z,24.40
2017-09-22T09:48:30.339Z,24.40
2017-09-22T09:50:58.422Z,25.00
2017-09-22T09:53:26.489Z,25.40
2017-09-22T09:55:54.625Z,25.90
2017-09-22T09:58:23.440Z,26.30
2017-09-22T10:00:51.554Z,26.30
2017-09-22T10:03:19.577Z,25.70
2017-09-22T10:05:47.662Z,26.20
2017-09-22T10:08:15.674Z,26.60
2017-09-22T10:10:46.806Z,26.50
2017-09-22T10:13:14.874Z,26.40
2017-09-22T10:15:42.974Z,26.10
2017-09-22T10:21:02.068Z,24.80
2017-09-22T10:23:32.089Z,24.00
2017-09-22T10:26:00.114Z,24.00
2017-09-22T10:28:28.091Z,24.00
2017-09-22T10:30:57.938Z,25.30
2017-09-22T10:33:25.923Z,25.30
2017-09-22T10:35:54.747Z,26.20
2017-09-22T10:38:22.759Z,26.10
2017-09-22T10:40:50.795Z,25.90
2017-09-22T10:43:18.825Z,26.20
2017-09-22T10:45:47.831Z,26.90
2017-09-22T10:48:15.917Z,26.90
2017-09-22T10:50:43.998Z,27.00
2017-09-22T10:53:12.173Z,27.30
2017-09-22T10:55:41.358Z,26.60
2017-09-22T10:58:09.474Z,25.70
2017-09-22T11:00:37.528Z,25.70
2017-09-22T11:03:05.611Z,26.30
2017-09-22T11:05:33.794Z,27.20
2017-09-22T11:08:01.853Z,28.00
2017-09-22T11:10:29.839Z,28.40
2017-09-22T11:12:58.161Z,28.40
2017-09-22T11:15:26.902Z,28.00
2017-09-22T11:17:54.868Z,28.00
2017-09-22T11:20:22.817Z,27.40
2017-09-22T11:22:50.810Z,26.50
2017-09-22T11:25:18.740Z,27.20
2017-09-22T11:27:46.798Z,27.80
2017-09-22T11:30:14.757Z,27.30
2017-09-22T11:32:42.734Z,27.30
2017-09-22T11:35:10.651Z,26.90
2017-09-22T11:37:38.612Z,26.10
2017-09-22T11:40:06.529Z,25.50
2017-09-22T11:42:34.547Z,25.30
2017-09-22T11:45:04.226Z,25.40
2017-09-22T11:47:32.183Z,25.40
2017-09-22T11:50:00.192Z,25.50
2017-09-22T11:52:28.202Z,25.50
2017-09-22T11:54:56.938Z,26.20
2017-09-22T11:57:25.733Z,25.80
2017-09-22T11:59:54.476Z,25.10
2017-09-22T12:02:22.473Z,25.00
2017-09-22T12:04:50.486Z,24.70
2017-09-22T12:07:18.451Z,24.30
2017-09-22T12:09:46.519Z,24.30
2017-09-22T12:12:14.457Z,24.40
2017-09-22T12:14:42.492Z,24.30
2017-09-22T12:17:10.452Z,24.60
2017-09-22T12:19:39.213Z,24.30
2017-09-22T12:22:07.898Z,23.90
2017-09-22T12:24:36.670Z,23.50
2017-09-22T12:27:04.596Z,23.50
2017-09-22T12:29:32.558Z,23.70
2017-09-22T12:32:00.485Z,24.20
2017-09-22T12:34:28.427Z,24.20
2017-09-22T12:36:56.331Z,24.30
2017-09-22T12:39:25.058Z,23.90
2017-09-22T12:41:52.979Z,23.80
2017-09-22T12:44:21.003Z,23.40
2017-09-22T12:46:49.247Z,22.80
2017-09-22T12:49:17.432Z,22.60
2017-09-22T12:51:46.505Z,22.10
2017-09-22T12:54:29.886Z,21.90
2017-09-22T12:56:57.793Z,21.60
2017-09-22T12:59:25.776Z,21.30
2017-09-22T13:01:53.763Z,21.20
2017-09-22T13:04:21.797Z,21.00
2017-09-22T13:06:49.885Z,20.70
2017-09-22T13:09:17.918Z,20.60
2017-09-22T13:11:45.917Z,20.50
2017-09-22T13:14:13.915Z,20.40
2017-09-22T13:16:41.914Z,20.30
2017-09-22T13:19:09.871Z,20.20
2017-09-22T13:21:37.849Z,20.10
2017-09-22T13:24:05.753Z,19.80
2017-09-22T13:26:33.749Z,19.70
2017-09-22T13:29:01.669Z,19.70
2017-09-22T13:31:29.609Z,19.60
2017-09-22T13:34:02.268Z,19.70
2017-09-22T13:36:30.199Z,19.70
2017-09-22T13:38:58.106Z,19.70
2017-09-22T13:41:26.044Z,19.90
2017-09-22T13:43:53.948Z,20.10
2017-09-22T13:46:21.937Z,20.50
2017-09-22T13:48:49.902Z,20.70
2017-09-22T13:51:17.831Z,20.70
2017-09-22T13:53:45.771Z,20.70
2017-09-22T13:56:13.728Z,21.20
2017-09-22T13:58:41.659Z,21.40
2017-09-22T14:01:09.584Z,21.40
2017-09-22T14:03:37.608Z,21.40
2017-09-22T14:06:05.540Z,21.10
2017-09-22T14:08:33.426Z,21.00
2017-09-22T14:11:01.354Z,21.10
2017-09-22T14:13:29.262Z,21.00
2017-09-22T14:15:57.264Z,20.90
2017-09-22T14:18:25.190Z,20.80
2017-09-22T14:20:53.058Z,20.80
2017-09-22T14:23:21.006Z,20.70
2017-09-22T14:25:48.920Z,20.60
2017-09-22T14:28:16.968Z,20.60
2017-09-22T14:30:44.875Z,20.60
2017-09-22T14:33:12.984Z,20.50
2017-09-22T14:35:40.919Z,20.40
2017-09-22T14:38:09.649Z,20.30
2017-09-22T14:40:37.604Z,20.30
2017-09-22T14:43:05.626Z,20.20
2017-09-22T14:45:33.520Z,20.20
2017-09-22T14:48:01.489Z,20.20
2017-09-22T14:50:29.374Z,20.20
2017-09-22T14:52:57.315Z,20.20
2017-09-22T14:55:25.271Z,20.10
2017-09-22T14:57:53.214Z,20.20
2017-09-22T15:00:21.127Z,20.10
2017-09-22T15:02:49.073Z,20.10
2017-09-22T15:05:17.019Z,20.00
2017-09-22T15:07:44.972Z,20.00
2017-09-22T15:10:12.848Z,20.00
2017-09-22T15:12:40.771Z,20.10
2017-09-22T15:15:08.657Z,20.10
2017-09-22T15:17:37.365Z,20.20
2017-09-22T15:20:05.251Z,20.20
2017-09-22T15:22:33.128Z,20.30
2017-09-22T15:25:03.128Z,20.20
2017-09-22T15:27:31.024Z,19.90
2017-09-22T15:29:58.980Z,19.80
2017-09-22T15:32:26.865Z,19.70
2017-09-22T15:34:54.811Z,19.70
2017-09-22T15:37:22.717Z,19.60
2017-09-22T15:39:50.670Z,19.60
2017-09-22T15:42:18.642Z,19.40
2017-09-22T15:44:46.585Z,19.40
2017-09-22T15:47:14.448Z,19.40
2017-09-22T15:49:42.386Z,19.20
2017-09-22T15:52:10.335Z,19.20
2017-09-22T15:54:42.300Z,19.10
2017-09-22T15:57:10.248Z,19.00
2017-09-22T15:59:38.220Z,19.00
2017-09-22T16:02:06.118Z,18.90
2017-09-22T16:04:34.060Z,19.00
2017-09-22T16:07:02.370Z,18.90
2017-09-22T16:09:31.072Z,18.70
2017-09-22T16:11:59.039Z,18.70
2017-09-22T16:14:27.028Z,18.60
2017-09-22T16:16:55.000Z,18.60
2017-09-22T16:19:22.958Z,18.50
2017-09-22T16:21:50.865Z,18.40
2017-09-22T16:24:18.823Z,18.40
2017-09-22T16:26:46.778Z,18.30
2017-09-22T16:29:14.756Z,18.20
2017-09-22T16:31:42.653Z,18.10
2017-09-22T16:34:10.951Z,17.90
2017-09-22T16:36:38.877Z,17.70
2017-09-22T16:39:06.771Z,17.70
2017-09-22T16:41:34.709Z,17.60
2017-09-22T16:44:02.628Z,17.50
2017-09-22T16:46:30.565Z,17.30
2017-09-22T16:48:58.429Z,17.30
2017-09-22T16:51:26.372Z,17.20
2017-09-22T16:53:54.279Z,17.10
2017-09-22T16:56:22.247Z,17.00
2017-09-22T16:58:50.162Z,16.90
2017-09-22T17:01:18.286Z,16.80
2017-09-22T17:03:46.202Z,16.70
2017-09-22T17:06:14.179Z,16.60
2017-09-22T17:08:42.126Z,16.50
2017-09-22T17:11:10.134Z,16.40
2017-09-22T17:13:38.344Z,16.30
2017-09-22T17:16:06.334Z,16.30
2017-09-22T17:18:34.265Z,16.10
2017-09-22T17:21:02.285Z,16.00
2017-09-22T17:23:30.293Z,16.00
2017-09-22T17:25:58.341Z,15.80
2017-09-22T17:28:26.339Z,15.70
2017-09-22T17:30:54.314Z,15.50
2017-09-22T17:33:22.231Z,15.30
2017-09-22T17:35:50.111Z,15.10
2017-09-22T17:38:18.043Z,14.90
2017-09-22T17:40:45.937Z,14.70
2017-09-22T17:43:13.967Z,14.60
2017-09-22T17:45:41.868Z,14.60
2017-09-22T17:48:09.792Z,14.50
2017-09-22T17:50:37.687Z,14.40
2017-09-22T17:53:05.738Z,14.40
2017-09-22T17:55:33.655Z,14.40
2017-09-22T17:58:01.634Z,14.30
2017-09-22T18:00:30.317Z,14.20
2017-09-22T18:02:58.283Z,14.20
2017-09-22T18:05:26.297Z,14.10
2017-09-22T18:07:54.444Z,14.10
2017-09-22T18:10:22.379Z,14.00
2017-09-22T18:12:50.357Z,13.90
2017-09-22T18:15:18.361Z,13.80
2017-09-22T18:17:47.115Z,13.70
2017-09-22T18:20:15.104Z,13.60
2017-09-22T18:22:43.071Z,13.60
2017-09-22T18:25:11.759Z,13.40
2017-09-22T18:27:40.481Z,13.30
2017-09-22T18:30:14.624Z,13.30
2017-09-22T18:32:42.585Z,13.20
2017-09-22T18:35:10.519Z,13.20
2017-09-22T18:37:38.580Z,13.10
2017-09-22T18:40:06.573Z,13.10
2017-09-22T18:42:34.621Z,13.00
2017-09-22T18:45:03.446Z,13.00
2017-09-22T18:47:31.409Z,12.90
2017-09-22T18:49:59.578Z,12.80
2017-09-22T18:52:27.579Z,12.80
2017-09-22T18:54:56.745Z,12.70
2017-09-22T18:57:24.696Z,12.70
2017-09-22T18:59:53.508Z,12.80
2017-09-22T19:02:21.838Z,12.70
2017-09-22T19:04:49.953Z,12.80
2017-09-22T19:07:22.531Z,12.70
2017-09-22T19:09:50.638Z,12.70
2017-09-22T19:12:18.738Z,12.60
2017-09-22T19:14:46.881Z,12.60
2017-09-22T19:17:14.847Z,12.50
2017-09-22T19:19:42.906Z,12.50
2017-09-22T19:22:10.833Z,12.50
2017-09-22T19:24:38.811Z,12.40
2017-09-22T19:27:06.725Z,12.30
2017-09-22T19:29:34.694Z,12.20
2017-09-22T19:32:02.679Z,12.20
2017-09-22T19:34:30.713Z,12.20
2017-09-22T19:36:59.005Z,12.10
2017-09-22T19:39:27.064Z,12.20
2017-09-22T19:41:55.034Z,12.20
2017-09-22T19:44:23.705Z,12.20
2017-09-22T19:46:52.000Z,12.30
2017-09-22T19:49:20.638Z,12.20
2017-09-22T19:51:49.166Z,12.20
2017-09-22T19:54:18.074Z,12.30
2017-09-22T19:56:46.201Z,12.20
2017-09-22T19:59:14.307Z,12.30
2017-09-22T20:01:42.450Z,12.20
2017-09-22T20:04:10.779Z,12.00
2017-09-22T20:06:42.496Z,12.10
2017-09-22T20:09:11.524Z,12.10
2017-09-22T20:11:39.759Z,12.20
2017-09-22T20:14:07.843Z,12.20
2017-09-22T20:16:36.582Z,12.40
2017-09-22T20:19:04.621Z,12.40
2017-09-22T20:21:33.339Z,12.40
2017-09-22T20:24:01.279Z,12.40
2017-09-22T20:26:29.217Z,12.40
2017-09-22T20:28:57.361Z,12.40
2017-09-22T20:31:25.458Z,12.50
2017-09-22T20:33:53.342Z,12.50
2017-09-22T20:36:22.062Z,12.50
2017-09-22T20:38:49.989Z,12.50
2017-09-22T20:41:17.944Z,12.40
2017-09-22T20:43:47.690Z,12.30
2017-09-22T20:46:17.175Z,12.30
2017-09-22T20:48:45.073Z,12.30
2017-09-22T20:51:13.226Z,12.40
2017-09-22T20:53:41.439Z,12.50
2017-09-22T20:56:09.432Z,12.50
2017-09-22T20:58:37.373Z,12.50
2017-09-22T21:01:05.356Z,12.60
2017-09-22T21:03:37.028Z,12.70
2017-09-22T21:06:05.037Z,12.70
2017-09-22T21:08:33.020Z,12.70
2017-09-22T21:11:00.953Z,12.70
2017-09-22T21:13:29.378Z,12.50
2017-09-22T21:15:57.296Z,12.50
2017-09-22T21:18:25.272Z,12.50
2017-09-22T21:20:53.180Z,12.50
2017-09-22T21:23:21.947Z,12.60
2017-09-22T21:25:49.878Z,12.50
2017-09-22T21:28:17.841Z,12.50
2017-09-22T21:30:45.757Z,12.60
2017-09-22T21:33:15.348Z,12.70
2017-09-22T21:35:43.367Z,12.70
2017-09-22T21:38:11.337Z,12.70
2017-09-22T21:40:39.247Z,12.80
2017-09-22T21:43:07.207Z,12.80
2017-09-22T21:45:35.212Z,12.80
2017-09-22T21:48:03.187Z,12.80
2017-09-22T21:50:31.105Z,12.80
2017-09-22T21:52:59.108Z,12.80
2017-09-22T21:55:27.025Z,12.80
2017-09-22T21:57:55.024Z,12.70
2017-09-22T22:00:22.937Z,12.60
2017-09-22T22:02:50.930Z,12.50
2017-09-22T22:05:29.511Z,12.40
2017-09-22T22:07:57.465Z,12.40
2017-09-22T22:10:25.374Z,12.40
2017-09-22T22:12:53.753Z,12.40
2017-09-22T22:15:21.729Z,12.50
2017-09-22T22:17:49.725Z,12.50
2017-09-22T22:20:17.630Z,12.50
2017-09-22T22:22:45.547Z,12.40
2017-09-22T22:25:14.485Z,12.40
2017-09-22T22:27:42.732Z,12.40
2017-09-22T22:30:10.712Z,12.30
2017-09-22T22:32:38.630Z,12.30
2017-09-22T22:35:06.577Z,12.30
2017-09-22T22:37:35.656Z,12.30
2017-09-22T22:40:03.636Z,12.30
2017-09-22T22:42:31.571Z,12.30
2017-09-22T22:44:59.579Z,12.40
2017-09-22T22:47:27.501Z,12.40
2017-09-22T22:49:55.473Z,12.50
2017-09-22T22:52:23.392Z,12.50
2017-09-22T22:54:59.594Z,12.50
2017-09-22T22:57:27.498Z,12.50
2017-09-22T22:59:55.461Z,12.40
2017-09-22T23:02:24.303Z,12.40
2017-09-22T23:04:52.257Z,12.40
2017-09-22T23:07:20.190Z,12.40
2017-09-22T23:09:48.138Z,12.40
2017-09-22T23:12:16.022Z,12.40
2017-09-22T23:14:43.976Z,12.50
2017-09-22T23:17:11.893Z,12.50
2017-09-22T23:19:39.870Z,12.60
2017-09-22T23:22:07.834Z,12.60
2017-09-22T23:24:35.800Z,12.60
2017-09-22T23:27:03.822Z,12.50
2017-09-22T23:29:31.725Z,12.60
2017-09-22T23:31:59.670Z,12.70
2017-09-22T23:34:27.632Z,12.70
2017-09-22T23:36:55.584Z,12.50
2017-09-22T23:39:23.488Z,12.40
2017-09-22T23:41:51.458Z,12.30
2017-09-22T23:44:19.512Z,12.30
2017-09-22T23:46:48.220Z,12.40
2017-09-22T23:49:16.118Z,12.40
2017-09-22T23:51:44.106Z,12.40
2017-09-22T23:54:12.020Z,12.50
2017-09-22T23:56:39.972Z,12.50
2017-09-22T23:59:07.892Z,12.60
